AirNav   TITAN Aviation Fuels
 
 590 users online  

71NC K & D Airport
Elon College, North Carolina, USA

GOING TO ELON COLLEGE?


FAA INFORMATION EFFECTIVE 03 NOVEMBER 2022

Location

FAA Identifier: 71NC
Lat/Long: 36-15-48.0000N 079-26-59.0000W
36-15.800000N 079-26.983333W
36.2633333,-79.4497222
(estimated)
Elevation: 800 ft. / 244 m (estimated)
Variation: 08W (2000)
From city: 10 miles N of ELON COLLEGE, NC
Time zone: UTC -5 (UTC -4 during Daylight Saving Time)
Zip code: 27244

Airport Operations

Airport use: Private use. Permission required prior to landing
Activation date: 03/2001
Control tower: no
ARTCC: ATLANTA CENTER
FSS: RALEIGH FLIGHT SERVICE STATION
Attendance: IREG
Wind indicator: yes
Segmented circle: no

Airport Communications

WX ASOS at BUY (13 nm S): 135.325 (336-570-9813)
WX ASOS at DAN (19 nm N): 128.125 (434-799-1701)

Nearby radio navigation aids

VOR radial/distance  VOR name  Freq  Var
DANr203/(19.1)DANVILLE VOR113.1006W
LIBr019/28.2LIBERTY VORTAC113.0003W
GSOr066/28.7GREENSBORO VORTAC116.2003W
SBVr225/32.4SOUTH BOSTON VORTAC110.4005W
RDUr315/39.9RALEIGH/DURHAM VORTAC117.2009W

 
NDB name  Hdg/Dist  Freq  Var  ID
SLAMMER122/16.742307WSIF ... .. ..-.
PERSON284/18.722008WHUR .... ..- .-.

Airport Services

Runway Information

Runway 4/22

Dimensions: 3000 x 200 ft. / 914 x 61 m
Surface: turf
RUNWAY 4  RUNWAY 22
Traffic pattern: leftleft
Obstructions: none50 ft. trees, 100 ft. from runway

Runway 9/27

Dimensions: 1000 x 200 ft. / 305 x 61 m
Surface: turf
RUNWAY 9  RUNWAY 27
Traffic pattern: leftleft

Airport Ownership and Management from official FAA records

Ownership: Privately-owned
Owner: JOHN K. ROBERTS
2998 STADLER ROAD
ELON COLLEGE, NC 27244
Phone 336-421-5920
Manager: JOHN K. ROBERTS
2998 STADLER ROAD
ELON COLLEGE, NC 27244
Phone 336-421-9911

Airport Operational Statistics

Aircraft based on the field: 2
Single engine airplanes: 1
Helicopters: 1
    

Additional Remarks

APCH & LNDG RWY 04, TKOF RWY 22.
FOR CD CTC ATLANTA ARTCC AT 770-210-7692.

Instrument Procedures

There are no published instrument procedures at 71NC.

Some nearby airports with instrument procedures:

KBUY - Burlington/Alamance Regional Airport (13 nm S)
KDAN - Danville Regional Airport (19 nm N)
KSIF - Rockingham County NC Shiloh Airport (22 nm NW)
KTDF - Raleigh Regional Airport at Person County (23 nm E)
2A5 - Causey Airport (23 nm S)
 
Loc | Ops | Rwys | IFR | FBO | Links
Com | Nav | Svcs | Stats | Notes
Area around 71NC (K & D Airport)
 
Road maps at: MapQuest Bing Google
 
Aerial photo
No photo
 
Sectional chart

 
Airport distance calculator
Flying to K & D Airport? Find the distance to fly.

From to 71NC

Sunrise and sunset
Times for 28-Nov-2022
 Local
(UTC-5)
 Zulu
(UTC)
Morning civil twilight06:4111:41
Sunrise07:0912:09
Sunset17:0322:03
Evening civil twilight17:3122:31

Current date and time
Zulu (UTC)  28-Nov-2022 11:36:13
Local (UTC-5)  28-Nov-2022 06:36:13
 
METAR
KBUY 
13nm S 
281054Z AUTO 23004KT 10SM CLR 07/05 A2978 RMK AO2 SLP083 T00720050
KDAN 
19nm N 
281053Z AUTO 24008KT 10SM SCT044 10/04 A2976 RMK AO2 SLP071 T01000044
KSIF 
22nm NW 
281115Z AUTO 22004KT 10SM OVC050 07/06 A2979 RMK AO2 T00720062
KTDF 
23nm E 
281115Z AUTO 24004KT 10SM CLR 10/05 A2980 RMK AO2
TAF
KDAN 
19nm N 
280540Z 2806/2906 26011KT P6SM SKC FM280900 28008KT P6SM FEW060 FM281800 31007KT P6SM SCT250
NOTAMs
Click for the latest NOTAMs
NOTAMs are issued by the DoD/FAA and will open in a separate window not controlled by AirNav.

 

 
 

Would you like to see your business listed on this page?

 If your business provides an interesting product or service to pilots, flight crews, aircraft, or users of the K & D Airport, you should consider listing it here.  To start the listing process, click on the button below
 
Add a business
 

Other Pages about K & D Airport

Update a link
 
Copyright © AirNav, LLC. All rights reserved. Privacy Policy  Contact